LYTV/TIV METAR and TAF weather

Enter ICAO airport designator
Station Type Date Time Source
LYTV METAR 2020/06/03 22:00 UTC NOAA

LYTV 032200Z 00000KT CAVOK 12/11 Q1011


Station Type Date Time Source
LYTV Decoded METAR 2020/06/03 22:00 UTC NOAA

Tivat, Serbia and Montenegro (LYTV) 42-24N 018-44E 5M
Jun 03, 2020 - 06:00 PM EDT / 2020.06.03 2200 UTC
Wind: Calm:0
Visibility: greater than 7 mile(s):0
Temperature: 53 F (12 C)
Dew Point: 51 F (11 C)
Relative Humidity: 93%
Pressure (altimeter): 29.85 in. Hg (1011 hPa)
ob: LYTV 032200Z 00000KT CAVOK 12/11 Q1011
cycle: 22

Station Type Date Time Source
LYTV TAF 2020/06/03 18:21 UTC NOAA

TAF LYTV 031700Z 0318/0418 02005KT 9999 FEW040 SCT080 TX24/0413Z TN09/0403Z
BECMG 0412/0414 13010KT PROB30
TEMPO 0412/0418 SHRA FEW030TCU SCT033 SCT080

Example: see airport list